sensor_id;sensor_type;location;lat;lon;timestamp;P1;durP1;ratioP1;P2;durP2;ratioP2
29384;SDS011;16367;48.736;9.218;2024-02-26T00:01:03;4.95;;;1.63;;
29384;SDS011;16367;48.736;9.218;2024-02-26T00:03:08;6.05;;;1.20;;
29384;SDS011;16367;48.736;9.218;2024-02-26T00:05:11;3.78;;;1.30;;
29384;SDS011;16367;48.736;9.218;2024-02-26T00:07:14;4.55;;;1.45;;
29384;SDS011;16367;48.736;9.218;2024-02-26T00:09:17;3.78;;;1.30;;
29384;SDS011;16367;48.736;9.218;2024-02-26T00:11:20;3.65;;;1.30;;
29384;SDS011;16367;48.736;9.218;2024-02-26T00:13:23;4.28;;;1.40;;
29384;SDS011;16367;48.736;9.218;2024-02-26T00:15:25;4.38;;;1.80;;
29384;SDS011;16367;48.736;9.218;2024-02-26T00:17:35;3.08;;;1.17;;
29384;SDS011;16367;48.736;9.218;2024-02-26T00:19:39;2.88;;;1.05;;
29384;SDS011;16367;48.736;9.218;2024-02-26T00:21:42;3.40;;;1.20;;
29384;SDS011;16367;48.736;9.218;2024-02-26T00:23:45;5.10;;;1.40;;
29384;SDS011;16367;48.736;9.218;2024-02-26T00:25:48;3.83;;;1.80;;
29384;SDS011;16367;48.736;9.218;2024-02-26T00:27:51;4.05;;;1.58;;
29384;SDS011;16367;48.736;9.218;2024-02-26T00:29:54;5.45;;;1.30;;
29384;SDS011;16367;48.736;9.218;2024-02-26T00:31:56;4.78;;;1.75;;
29384;SDS011;16367;48.736;9.218;2024-02-26T00:33:58;3.63;;;1.40;;
29384;SDS011;16367;48.736;9.218;2024-02-26T00:36:02;3.92;;;1.40;;
29384;SDS011;16367;48.736;9.218;2024-02-26T00:38:06;5.68;;;1.52;;
29384;SDS011;16367;48.736;9.218;2024-02-26T00:40:08;3.40;;;1.25;;
29384;SDS011;16367;48.736;9.218;2024-02-26T00:42:12;3.70;;;1.50;;
29384;SDS011;16367;48.736;9.218;2024-02-26T00:44:15;4.53;;;1.50;;
29384;SDS011;16367;48.736;9.218;2024-02-26T00:46:17;4.75;;;1.70;;
29384;SDS011;16367;48.736;9.218;2024-02-26T00:48:20;5.95;;;1.42;;
29384;SDS011;16367;48.736;9.218;2024-02-26T00:50:27;4.10;;;1.40;;
29384;SDS011;16367;48.736;9.218;2024-02-26T00:52:31;4.82;;;1.65;;
29384;SDS011;16367;48.736;9.218;2024-02-26T00:54:37;5.43;;;1.80;;
29384;SDS011;16367;48.736;9.218;2024-02-26T00:56:40;4.13;;;1.67;;
29384;SDS011;16367;48.736;9.218;2024-02-26T00:58:43;5.65;;;1.42;;
29384;SDS011;16367;48.736;9.218;2024-02-26T01:00:46;4.68;;;1.40;;
29384;SDS011;16367;48.736;9.218;2024-02-26T01:02:49;4.22;;;1.45;;
29384;SDS011;16367;48.736;9.218;2024-02-26T01:04:52;5.13;;;1.77;;
29384;SDS011;16367;48.736;9.218;2024-02-26T01:06:55;5.20;;;1.42;;
29384;SDS011;16367;48.736;9.218;2024-02-26T01:08:59;4.60;;;1.55;;
29384;SDS011;16367;48.736;9.218;2024-02-26T01:11:02;4.38;;;1.80;;
29384;SDS011;16367;48.736;9.218;2024-02-26T01:13:04;3.47;;;1.30;;
29384;SDS011;16367;48.736;9.218;2024-02-26T01:15:09;3.35;;;1.27;;
29384;SDS011;16367;48.736;9.218;2024-02-26T01:17:12;3.67;;;1.25;;
29384;SDS011;16367;48.736;9.218;2024-02-26T01:19:20;4.47;;;1.65;;
29384;SDS011;16367;48.736;9.218;2024-02-26T01:21:23;5.55;;;1.80;;
29384;SDS011;16367;48.736;9.218;2024-02-26T01:23:25;3.25;;;1.17;;
29384;SDS011;16367;48.736;9.218;2024-02-26T01:25:32;4.28;;;1.60;;
29384;SDS011;16367;48.736;9.218;2024-02-26T01:27:36;3.67;;;1.40;;
29384;SDS011;16367;48.736;9.218;2024-02-26T01:29:40;6.18;;;1.80;;
29384;SDS011;16367;48.736;9.218;2024-02-26T01:31:44;4.70;;;1.70;;
29384;SDS011;16367;48.736;9.218;2024-02-26T01:33:47;4.47;;;1.33;;
29384;SDS011;16367;48.736;9.218;2024-02-26T01:35:50;4.30;;;1.35;;
29384;SDS011;16367;48.736;9.218;2024-02-26T01:37:54;3.40;;;1.40;;
29384;SDS011;16367;48.736;9.218;2024-02-26T01:39:57;3.70;;;1.48;;
29384;SDS011;16367;48.736;9.218;2024-02-26T01:42:01;3.40;;;1.27;;
29384;SDS011;16367;48.736;9.218;2024-02-26T01:44:05;3.65;;;1.27;;
29384;SDS011;16367;48.736;9.218;2024-02-26T01:46:09;5.47;;;1.60;;
29384;SDS011;16367;48.736;9.218;2024-02-26T01:50:19;6.65;;;1.45;;
29384;SDS011;16367;48.736;9.218;2024-02-26T01:52:24;5.50;;;1.90;;
29384;SDS011;16367;48.736;9.218;2024-02-26T01:54:28;4.38;;;1.40;;
29384;SDS011;16367;48.736;9.218;2024-02-26T01:56:32;5.50;;;1.67;;
29384;SDS011;16367;48.736;9.218;2024-02-26T01:58:38;4.88;;;1.80;;
29384;SDS011;16367;48.736;9.218;2024-02-26T02:00:46;4.07;;;1.83;;
29384;SDS011;16367;48.736;9.218;2024-02-26T02:02:53;4.45;;;1.60;;
29384;SDS011;16367;48.736;9.218;2024-02-26T02:04:57;3.13;;;1.27;;
29384;SDS011;16367;48.736;9.218;2024-02-26T02:06:59;4.55;;;1.55;;
29384;SDS011;16367;48.736;9.218;2024-02-26T02:09:02;3.75;;;1.27;;
29384;SDS011;16367;48.736;9.218;2024-02-26T02:11:11;3.60;;;1.33;;
29384;SDS011;16367;48.736;9.218;2024-02-26T02:13:16;4.28;;;1.65;;
29384;SDS011;16367;48.736;9.218;2024-02-26T02:15:20;4.25;;;1.65;;
29384;SDS011;16367;48.736;9.218;2024-02-26T02:17:23;4.40;;;1.48;;
29384;SDS011;16367;48.736;9.218;2024-02-26T02:19:28;3.90;;;1.50;;
29384;SDS011;16367;48.736;9.218;2024-02-26T02:21:35;3.30;;;1.02;;
29384;SDS011;16367;48.736;9.218;2024-02-26T02:23:39;3.30;;;1.17;;
29384;SDS011;16367;48.736;9.218;2024-02-26T02:25:41;3.63;;;1.30;;
29384;SDS011;16367;48.736;9.218;2024-02-26T02:27:53;3.20;;;1.27;;
29384;SDS011;16367;48.736;9.218;2024-02-26T02:29:56;4.78;;;1.40;;
29384;SDS011;16367;48.736;9.218;2024-02-26T02:31:59;3.63;;;1.05;;
29384;SDS011;16367;48.736;9.218;2024-02-26T02:34:04;4.25;;;1.25;;
29384;SDS011;16367;48.736;9.218;2024-02-26T02:36:08;3.20;;;0.80;;
29384;SDS011;16367;48.736;9.218;2024-02-26T02:38:13;3.80;;;1.20;;
29384;SDS011;16367;48.736;9.218;2024-02-26T02:40:16;3.33;;;1.10;;
29384;SDS011;16367;48.736;9.218;2024-02-26T02:42:19;3.05;;;1.00;;
29384;SDS011;16367;48.736;9.218;2024-02-26T02:44:21;2.08;;;0.80;;
29384;SDS011;16367;48.736;9.218;2024-02-26T02:46:24;2.80;;;0.80;;
29384;SDS011;16367;48.736;9.218;2024-02-26T02:48:27;4.10;;;1.13;;
29384;SDS011;16367;48.736;9.218;2024-02-26T02:50:33;3.90;;;1.02;;
29384;SDS011;16367;48.736;9.218;2024-02-26T02:52:36;3.63;;;1.00;;
29384;SDS011;16367;48.736;9.218;2024-02-26T02:54:39;3.22;;;0.90;;
29384;SDS011;16367;48.736;9.218;2024-02-26T02:56:43;5.10;;;1.08;;
29384;SDS011;16367;48.736;9.218;2024-02-26T02:58:46;2.45;;;0.90;;
29384;SDS011;16367;48.736;9.218;2024-02-26T03:00:49;3.85;;;0.93;;
29384;SDS011;16367;48.736;9.218;2024-02-26T03:02:53;3.10;;;1.00;;
29384;SDS011;16367;48.736;9.218;2024-02-26T03:04:56;2.53;;;0.77;;
29384;SDS011;16367;48.736;9.218;2024-02-26T03:06:59;2.15;;;0.75;;
29384;SDS011;16367;48.736;9.218;2024-02-26T03:09:03;2.53;;;0.90;;
29384;SDS011;16367;48.736;9.218;2024-02-26T03:11:07;3.85;;;0.80;;
29384;SDS011;16367;48.736;9.218;2024-02-26T03:13:12;2.15;;;0.73;;
29384;SDS011;16367;48.736;9.218;2024-02-26T03:15:15;2.55;;;0.75;;
29384;SDS011;16367;48.736;9.218;2024-02-26T03:17:18;3.20;;;0.85;;
29384;SDS011;16367;48.736;9.218;2024-02-26T03:19:21;2.38;;;0.70;;
29384;SDS011;16367;48.736;9.218;2024-02-26T03:21:26;3.00;;;0.90;;
29384;SDS011;16367;48.736;9.218;2024-02-26T03:23:31;3.15;;;0.90;;
29384;SDS011;16367;48.736;9.218;2024-02-26T03:25:37;2.55;;;0.80;;
29384;SDS011;16367;48.736;9.218;2024-02-26T03:27:44;2.35;;;0.60;;
29384;SDS011;16367;48.736;9.218;2024-02-26T03:29:47;1.55;;;0.50;;
29384;SDS011;16367;48.736;9.218;2024-02-26T03:31:49;2.13;;;0.68;;
29384;SDS011;16367;48.736;9.218;2024-02-26T03:33:52;2.28;;;0.80;;
29384;SDS011;16367;48.736;9.218;2024-02-26T03:35:55;3.20;;;1.10;;
29384;SDS011;16367;48.736;9.218;2024-02-26T03:37:58;2.60;;;0.60;;
29384;SDS011;16367;48.736;9.218;2024-02-26T03:40:01;2.25;;;0.60;;
29384;SDS011;16367;48.736;9.218;2024-02-26T03:42:05;1.55;;;0.50;;
29384;SDS011;16367;48.736;9.218;2024-02-26T03:44:09;2.85;;;0.73;;
29384;SDS011;16367;48.736;9.218;2024-02-26T03:46:12;2.50;;;0.60;;
29384;SDS011;16367;48.736;9.218;2024-02-26T03:48:15;2.47;;;0.80;;
29384;SDS011;16367;48.736;9.218;2024-02-26T03:50:20;2.60;;;0.80;;
29384;SDS011;16367;48.736;9.218;2024-02-26T03:52:23;2.72;;;0.80;;
29384;SDS011;16367;48.736;9.218;2024-02-26T03:54:25;2.90;;;0.90;;
29384;SDS011;16367;48.736;9.218;2024-02-26T03:56:28;2.38;;;0.80;;
29384;SDS011;16367;48.736;9.218;2024-02-26T03:58:31;3.65;;;1.13;;
29384;SDS011;16367;48.736;9.218;2024-02-26T04:00:38;3.42;;;1.13;;
29384;SDS011;16367;48.736;9.218;2024-02-26T04:02:39;4.15;;;1.30;;
29384;SDS011;16367;48.736;9.218;2024-02-26T04:04:42;4.93;;;1.25;;
29384;SDS011;16367;48.736;9.218;2024-02-26T04:06:45;3.80;;;1.10;;
29384;SDS011;16367;48.736;9.218;2024-02-26T04:08:49;3.38;;;1.20;;
29384;SDS011;16367;48.736;9.218;2024-02-26T04:10:52;3.35;;;1.02;;
29384;SDS011;16367;48.736;9.218;2024-02-26T04:12:56;4.18;;;1.30;;
29384;SDS011;16367;48.736;9.218;2024-02-26T04:14:58;3.88;;;1.20;;
29384;SDS011;16367;48.736;9.218;2024-02-26T04:17:02;4.28;;;1.08;;
29384;SDS011;16367;48.736;9.218;2024-02-26T04:19:05;3.35;;;1.17;;
29384;SDS011;16367;48.736;9.218;2024-02-26T04:21:08;3.63;;;1.08;;
29384;SDS011;16367;48.736;9.218;2024-02-26T04:23:11;4.43;;;1.20;;
29384;SDS011;16367;48.736;9.218;2024-02-26T04:25:14;3.60;;;1.02;;
29384;SDS011;16367;48.736;9.218;2024-02-26T04:27:17;4.03;;;1.10;;
29384;SDS011;16367;48.736;9.218;2024-02-26T04:29:18;4.18;;;1.25;;
29384;SDS011;16367;48.736;9.218;2024-02-26T04:31:21;3.83;;;1.27;;
29384;SDS011;16367;48.736;9.218;2024-02-26T04:33:26;3.47;;;1.13;;
29384;SDS011;16367;48.736;9.218;2024-02-26T04:35:30;2.85;;;0.93;;
29384;SDS011;16367;48.736;9.218;2024-02-26T04:37:33;3.22;;;1.00;;
29384;SDS011;16367;48.736;9.218;2024-02-26T04:39:35;3.65;;;1.05;;
29384;SDS011;16367;48.736;9.218;2024-02-26T04:41:39;4.35;;;1.23;;
29384;SDS011;16367;48.736;9.218;2024-02-26T04:43:42;4.35;;;1.20;;
29384;SDS011;16367;48.736;9.218;2024-02-26T04:45:45;4.28;;;1.35;;
29384;SDS011;16367;48.736;9.218;2024-02-26T04:47:48;4.60;;;1.60;;
29384;SDS011;16367;48.736;9.218;2024-02-26T04:49:58;5.03;;;1.50;;
29384;SDS011;16367;48.736;9.218;2024-02-26T04:52:01;3.95;;;1.40;;
29384;SDS011;16367;48.736;9.218;2024-02-26T04:54:04;3.20;;;1.23;;
29384;SDS011;16367;48.736;9.218;2024-02-26T04:56:07;5.15;;;1.73;;
29384;SDS011;16367;48.736;9.218;2024-02-26T04:58:10;6.43;;;1.95;;
29384;SDS011;16367;48.736;9.218;2024-02-26T05:00:15;4.45;;;1.65;;
29384;SDS011;16367;48.736;9.218;2024-02-26T05:02:19;5.75;;;2.20;;
29384;SDS011;16367;48.736;9.218;2024-02-26T05:04:22;4.07;;;1.75;;
29384;SDS011;16367;48.736;9.218;2024-02-26T05:06:27;5.35;;;1.88;;
29384;SDS011;16367;48.736;9.218;2024-02-26T05:08:30;4.25;;;1.70;;
29384;SDS011;16367;48.736;9.218;2024-02-26T05:10:35;4.05;;;1.65;;
29384;SDS011;16367;48.736;9.218;2024-02-26T05:12:42;4.97;;;1.58;;
29384;SDS011;16367;48.736;9.218;2024-02-26T05:14:45;4.68;;;1.90;;
29384;SDS011;16367;48.736;9.218;2024-02-26T05:16:47;5.65;;;1.88;;
29384;SDS011;16367;48.736;9.218;2024-02-26T05:18:50;4.90;;;2.03;;
29384;SDS011;16367;48.736;9.218;2024-02-26T05:20:55;4.25;;;1.83;;
29384;SDS011;16367;48.736;9.218;2024-02-26T05:22:59;4.38;;;1.70;;
29384;SDS011;16367;48.736;9.218;2024-02-26T05:25:02;5.20;;;1.67;;
29384;SDS011;16367;48.736;9.218;2024-02-26T05:27:05;4.35;;;1.67;;
29384;SDS011;16367;48.736;9.218;2024-02-26T05:29:09;4.88;;;1.50;;
29384;SDS011;16367;48.736;9.218;2024-02-26T05:31:13;5.20;;;1.70;;
29384;SDS011;16367;48.736;9.218;2024-02-26T05:33:15;4.30;;;1.88;;
29384;SDS011;16367;48.736;9.218;2024-02-26T05:35:19;5.07;;;1.80;;
29384;SDS011;16367;48.736;9.218;2024-02-26T05:37:25;4.75;;;1.83;;
29384;SDS011;16367;48.736;9.218;2024-02-26T05:39:28;4.70;;;1.38;;
29384;SDS011;16367;48.736;9.218;2024-02-26T05:41:31;4.03;;;1.52;;
29384;SDS011;16367;48.736;9.218;2024-02-26T05:43:40;4.72;;;1.63;;
29384;SDS011;16367;48.736;9.218;2024-02-26T05:45:43;4.93;;;1.63;;
29384;SDS011;16367;48.736;9.218;2024-02-26T05:47:46;4.97;;;1.38;;
29384;SDS011;16367;48.736;9.218;2024-02-26T05:49:51;4.68;;;1.63;;
29384;SDS011;16367;48.736;9.218;2024-02-26T05:51:54;4.25;;;1.70;;
29384;SDS011;16367;48.736;9.218;2024-02-26T05:53:58;5.15;;;1.95;;
29384;SDS011;16367;48.736;9.218;2024-02-26T05:56:07;5.28;;;2.35;;
29384;SDS011;16367;48.736;9.218;2024-02-26T05:58:09;4.07;;;1.33;;
29384;SDS011;16367;48.736;9.218;2024-02-26T06:00:14;4.07;;;1.70;;
29384;SDS011;16367;48.736;9.218;2024-02-26T06:02:17;4.78;;;1.50;;
29384;SDS011;16367;48.736;9.218;2024-02-26T06:04:20;5.15;;;1.52;;
29384;SDS011;16367;48.736;9.218;2024-02-26T06:06:23;4.82;;;1.40;;
29384;SDS011;16367;48.736;9.218;2024-02-26T06:08:26;4.28;;;1.70;;
29384;SDS011;16367;48.736;9.218;2024-02-26T06:10:29;5.78;;;1.75;;
29384;SDS011;16367;48.736;9.218;2024-02-26T06:12:36;3.78;;;1.42;;
29384;SDS011;16367;48.736;9.218;2024-02-26T06:14:41;3.95;;;1.48;;
29384;SDS011;16367;48.736;9.218;2024-02-26T06:16:44;4.60;;;1.67;;
29384;SDS011;16367;48.736;9.218;2024-02-26T06:18:47;4.78;;;1.67;;
29384;SDS011;16367;48.736;9.218;2024-02-26T06:20:50;6.05;;;1.90;;
29384;SDS011;16367;48.736;9.218;2024-02-26T06:22:53;3.78;;;1.50;;
29384;SDS011;16367;48.736;9.218;2024-02-26T06:24:56;4.07;;;1.35;;
29384;SDS011;16367;48.736;9.218;2024-02-26T06:26:58;4.03;;;1.40;;
29384;SDS011;16367;48.736;9.218;2024-02-26T06:29:02;4.00;;;1.60;;
29384;SDS011;16367;48.736;9.218;2024-02-26T06:31:06;3.92;;;1.50;;
29384;SDS011;16367;48.736;9.218;2024-02-26T06:33:09;4.47;;;1.70;;
29384;SDS011;16367;48.736;9.218;2024-02-26T06:35:12;4.05;;;1.50;;
29384;SDS011;16367;48.736;9.218;2024-02-26T06:37:15;4.78;;;1.88;;
29384;SDS011;16367;48.736;9.218;2024-02-26T06:39:18;3.40;;;1.42;;
29384;SDS011;16367;48.736;9.218;2024-02-26T06:41:21;4.05;;;1.50;;
29384;SDS011;16367;48.736;9.218;2024-02-26T06:43:28;4.85;;;1.50;;
29384;SDS011;16367;48.736;9.218;2024-02-26T06:45:32;4.85;;;1.50;;
29384;SDS011;16367;48.736;9.218;2024-02-26T06:47:35;4.15;;;1.30;;
29384;SDS011;16367;48.736;9.218;2024-02-26T06:49:41;4.55;;;1.55;;
29384;SDS011;16367;48.736;9.218;2024-02-26T06:51:45;4.57;;;1.75;;
29384;SDS011;16367;48.736;9.218;2024-02-26T06:53:48;4.40;;;1.45;;
29384;SDS011;16367;48.736;9.218;2024-02-26T06:55:52;3.83;;;1.20;;
29384;SDS011;16367;48.736;9.218;2024-02-26T06:57:55;4.93;;;2.10;;
29384;SDS011;16367;48.736;9.218;2024-02-26T06:59:57;4.75;;;1.70;;
29384;SDS011;16367;48.736;9.218;2024-02-26T07:02:02;3.30;;;1.27;;
29384;SDS011;16367;48.736;9.218;2024-02-26T07:04:05;4.07;;;1.45;;
29384;SDS011;16367;48.736;9.218;2024-02-26T07:06:08;5.15;;;1.25;;
29384;SDS011;16367;48.736;9.218;2024-02-26T07:08:11;6.10;;;1.77;;
29384;SDS011;16367;48.736;9.218;2024-02-26T07:10:14;3.65;;;1.27;;
29384;SDS011;16367;48.736;9.218;2024-02-26T07:12:17;4.72;;;1.20;;
29384;SDS011;16367;48.736;9.218;2024-02-26T07:14:21;4.50;;;1.40;;
29384;SDS011;16367;48.736;9.218;2024-02-26T07:16:23;4.13;;;1.40;;
29384;SDS011;16367;48.736;9.218;2024-02-26T07:18:29;3.75;;;1.27;;
29384;SDS011;16367;48.736;9.218;2024-02-26T07:20:32;4.75;;;1.50;;
29384;SDS011;16367;48.736;9.218;2024-02-26T07:22:34;4.28;;;1.58;;
29384;SDS011;16367;48.736;9.218;2024-02-26T07:24:37;8.77;;;2.70;;
29384;SDS011;16367;48.736;9.218;2024-02-26T07:26:40;6.38;;;2.05;;
29384;SDS011;16367;48.736;9.218;2024-02-26T07:28:45;8.57;;;2.38;;
29384;SDS011;16367;48.736;9.218;2024-02-26T07:30:49;6.25;;;2.17;;
29384;SDS011;16367;48.736;9.218;2024-02-26T07:32:51;8.02;;;2.47;;
29384;SDS011;16367;48.736;9.218;2024-02-26T07:34:59;9.32;;;2.78;;
29384;SDS011;16367;48.736;9.218;2024-02-26T07:37:02;8.10;;;2.80;;
29384;SDS011;16367;48.736;9.218;2024-02-26T07:39:05;7.40;;;2.53;;
29384;SDS011;16367;48.736;9.218;2024-02-26T07:41:08;7.50;;;2.55;;
29384;SDS011;16367;48.736;9.218;2024-02-26T07:43:11;8.25;;;2.97;;
29384;SDS011;16367;48.736;9.218;2024-02-26T07:45:14;8.13;;;3.22;;
29384;SDS011;16367;48.736;9.218;2024-02-26T07:47:21;9.55;;;3.20;;
29384;SDS011;16367;48.736;9.218;2024-02-26T07:49:24;8.02;;;2.88;;
29384;SDS011;16367;48.736;9.218;2024-02-26T07:51:31;8.55;;;3.03;;
29384;SDS011;16367;48.736;9.218;2024-02-26T07:53:34;11.63;;;3.42;;
29384;SDS011;16367;48.736;9.218;2024-02-26T07:55:38;11.25;;;2.78;;
29384;SDS011;16367;48.736;9.218;2024-02-26T07:57:41;8.43;;;2.60;;
29384;SDS011;16367;48.736;9.218;2024-02-26T07:59:45;6.53;;;2.70;;
29384;SDS011;16367;48.736;9.218;2024-02-26T08:01:51;7.03;;;2.30;;
29384;SDS011;16367;48.736;9.218;2024-02-26T08:03:59;8.43;;;2.30;;
29384;SDS011;16367;48.736;9.218;2024-02-26T08:06:02;5.47;;;2.10;;
29384;SDS011;16367;48.736;9.218;2024-02-26T08:08:07;7.07;;;2.25;;
29384;SDS011;16367;48.736;9.218;2024-02-26T08:10:10;5.90;;;2.17;;
29384;SDS011;16367;48.736;9.218;2024-02-26T08:12:13;6.93;;;2.00;;
29384;SDS011;16367;48.736;9.218;2024-02-26T08:14:16;4.90;;;1.90;;
29384;SDS011;16367;48.736;9.218;2024-02-26T08:16:18;5.03;;;1.92;;
29384;SDS011;16367;48.736;9.218;2024-02-26T08:18:21;5.80;;;2.03;;
29384;SDS011;16367;48.736;9.218;2024-02-26T08:20:24;5.70;;;1.85;;
29384;SDS011;16367;48.736;9.218;2024-02-26T08:22:27;4.65;;;1.75;;
29384;SDS011;16367;48.736;9.218;2024-02-26T08:24:31;4.25;;;1.75;;
29384;SDS011;16367;48.736;9.218;2024-02-26T08:26:34;5.03;;;1.80;;
29384;SDS011;16367;48.736;9.218;2024-02-26T08:28:36;3.85;;;1.50;;
29384;SDS011;16367;48.736;9.218;2024-02-26T08:30:39;3.92;;;1.77;;
29384;SDS011;16367;48.736;9.218;2024-02-26T08:32:42;4.20;;;1.73;;
29384;SDS011;16367;48.736;9.218;2024-02-26T08:34:47;5.30;;;2.35;;
29384;SDS011;16367;48.736;9.218;2024-02-26T08:36:49;4.90;;;1.92;;
29384;SDS011;16367;48.736;9.218;2024-02-26T08:38:52;5.35;;;2.10;;
29384;SDS011;16367;48.736;9.218;2024-02-26T08:40:56;5.40;;;1.80;;
29384;SDS011;16367;48.736;9.218;2024-02-26T08:42:59;7.32;;;2.08;;
29384;SDS011;16367;48.736;9.218;2024-02-26T08:45:02;5.75;;;1.85;;
29384;SDS011;16367;48.736;9.218;2024-02-26T08:47:05;4.85;;;2.00;;
29384;SDS011;16367;48.736;9.218;2024-02-26T08:49:08;3.92;;;1.58;;
29384;SDS011;16367;48.736;9.218;2024-02-26T08:51:11;5.10;;;2.08;;
29384;SDS011;16367;48.736;9.218;2024-02-26T08:53:14;4.93;;;1.70;;
29384;SDS011;16367;48.736;9.218;2024-02-26T08:55:24;5.05;;;1.60;;
29384;SDS011;16367;48.736;9.218;2024-02-26T08:57:28;4.93;;;1.90;;
29384;SDS011;16367;48.736;9.218;2024-02-26T08:59:34;5.38;;;1.80;;
29384;SDS011;16367;48.736;9.218;2024-02-26T09:01:37;5.88;;;2.50;;
29384;SDS011;16367;48.736;9.218;2024-02-26T09:03:40;6.57;;;2.60;;
29384;SDS011;16367;48.736;9.218;2024-02-26T09:05:43;4.93;;;2.38;;
29384;SDS011;16367;48.736;9.218;2024-02-26T09:07:46;6.55;;;2.10;;
29384;SDS011;16367;48.736;9.218;2024-02-26T09:09:49;5.18;;;2.47;;
29384;SDS011;16367;48.736;9.218;2024-02-26T09:11:52;5.72;;;1.98;;
29384;SDS011;16367;48.736;9.218;2024-02-26T09:13:58;5.18;;;1.90;;
29384;SDS011;16367;48.736;9.218;2024-02-26T09:16:01;5.10;;;1.83;;
29384;SDS011;16367;48.736;9.218;2024-02-26T09:18:04;4.53;;;1.60;;
29384;SDS011;16367;48.736;9.218;2024-02-26T09:20:07;5.15;;;1.77;;
29384;SDS011;16367;48.736;9.218;2024-02-26T09:22:11;4.43;;;1.75;;
29384;SDS011;16367;48.736;9.218;2024-02-26T09:24:16;5.95;;;2.00;;
29384;SDS011;16367;48.736;9.218;2024-02-26T09:26:19;4.00;;;1.52;;
29384;SDS011;16367;48.736;9.218;2024-02-26T09:28:22;4.25;;;1.60;;
29384;SDS011;16367;48.736;9.218;2024-02-26T09:30:26;3.80;;;1.60;;
29384;SDS011;16367;48.736;9.218;2024-02-26T09:32:29;4.13;;;1.50;;
29384;SDS011;16367;48.736;9.218;2024-02-26T09:34:32;5.85;;;1.92;;
29384;SDS011;16367;48.736;9.218;2024-02-26T09:36:35;6.63;;;2.17;;
29384;SDS011;16367;48.736;9.218;2024-02-26T09:38:39;4.82;;;2.10;;
29384;SDS011;16367;48.736;9.218;2024-02-26T09:40:56;4.07;;;1.77;;
29384;SDS011;16367;48.736;9.218;2024-02-26T09:43:00;5.22;;;1.60;;
29384;SDS011;16367;48.736;9.218;2024-02-26T09:45:05;4.25;;;1.80;;
29384;SDS011;16367;48.736;9.218;2024-02-26T09:47:15;6.03;;;2.40;;
29384;SDS011;16367;48.736;9.218;2024-02-26T09:49:18;4.63;;;1.75;;
29384;SDS011;16367;48.736;9.218;2024-02-26T09:51:23;4.68;;;1.83;;
29384;SDS011;16367;48.736;9.218;2024-02-26T09:53:26;6.40;;;2.47;;
29384;SDS011;16367;48.736;9.218;2024-02-26T09:55:32;6.85;;;2.30;;
29384;SDS011;16367;48.736;9.218;2024-02-26T09:57:36;5.60;;;2.13;;
29384;SDS011;16367;48.736;9.218;2024-02-26T09:59:40;5.40;;;1.90;;
29384;SDS011;16367;48.736;9.218;2024-02-26T10:01:44;7.32;;;2.15;;
29384;SDS011;16367;48.736;9.218;2024-02-26T10:03:52;4.68;;;1.88;;
29384;SDS011;16367;48.736;9.218;2024-02-26T10:05:58;4.45;;;1.70;;
29384;SDS011;16367;48.736;9.218;2024-02-26T10:08:01;6.07;;;1.85;;
29384;SDS011;16367;48.736;9.218;2024-02-26T10:10:03;6.15;;;1.88;;
29384;SDS011;16367;48.736;9.218;2024-02-26T10:12:07;4.75;;;1.70;;
29384;SDS011;16367;48.736;9.218;2024-02-26T10:14:14;7.50;;;1.88;;
29384;SDS011;16367;48.736;9.218;2024-02-26T10:16:16;5.05;;;1.80;;
29384;SDS011;16367;48.736;9.218;2024-02-26T10:18:19;4.80;;;1.45;;
29384;SDS011;16367;48.736;9.218;2024-02-26T10:20:23;6.25;;;2.20;;
29384;SDS011;16367;48.736;9.218;2024-02-26T10:22:27;7.47;;;1.92;;
29384;SDS011;16367;48.736;9.218;2024-02-26T10:24:30;4.68;;;1.83;;
29384;SDS011;16367;48.736;9.218;2024-02-26T10:26:34;4.93;;;1.90;;
29384;SDS011;16367;48.736;9.218;2024-02-26T10:28:37;5.40;;;2.28;;
29384;SDS011;16367;48.736;9.218;2024-02-26T10:30:40;5.18;;;2.05;;
29384;SDS011;16367;48.736;9.218;2024-02-26T10:32:44;5.15;;;1.52;;
29384;SDS011;16367;48.736;9.218;2024-02-26T10:34:47;5.25;;;1.70;;
29384;SDS011;16367;48.736;9.218;2024-02-26T10:36:52;4.20;;;1.48;;
29384;SDS011;16367;48.736;9.218;2024-02-26T10:38:56;3.60;;;1.50;;
29384;SDS011;16367;48.736;9.218;2024-02-26T10:40:59;4.70;;;1.90;;
29384;SDS011;16367;48.736;9.218;2024-02-26T10:43:03;4.55;;;1.48;;
29384;SDS011;16367;48.736;9.218;2024-02-26T10:45:07;4.78;;;1.77;;
29384;SDS011;16367;48.736;9.218;2024-02-26T10:47:11;5.85;;;1.77;;
29384;SDS011;16367;48.736;9.218;2024-02-26T10:49:15;4.00;;;1.60;;
29384;SDS011;16367;48.736;9.218;2024-02-26T10:51:20;5.78;;;2.42;;
29384;SDS011;16367;48.736;9.218;2024-02-26T10:53:30;3.72;;;1.30;;
29384;SDS011;16367;48.736;9.218;2024-02-26T10:55:33;5.50;;;1.90;;
29384;SDS011;16367;48.736;9.218;2024-02-26T10:57:39;4.22;;;1.50;;
29384;SDS011;16367;48.736;9.218;2024-02-26T10:59:44;3.83;;;1.55;;
29384;SDS011;16367;48.736;9.218;2024-02-26T11:01:48;5.10;;;1.27;;
29384;SDS011;16367;48.736;9.218;2024-02-26T11:03:52;4.22;;;1.23;;
29384;SDS011;16367;48.736;9.218;2024-02-26T11:05:55;4.25;;;1.38;;
29384;SDS011;16367;48.736;9.218;2024-02-26T11:08:00;3.60;;;1.08;;
29384;SDS011;16367;48.736;9.218;2024-02-26T11:10:05;4.25;;;1.40;;
29384;SDS011;16367;48.736;9.218;2024-02-26T11:12:08;3.80;;;1.50;;
29384;SDS011;16367;48.736;9.218;2024-02-26T11:14:14;6.18;;;2.15;;
29384;SDS011;16367;48.736;9.218;2024-02-26T11:16:18;4.47;;;1.60;;
29384;SDS011;16367;48.736;9.218;2024-02-26T11:18:21;3.47;;;1.23;;
29384;SDS011;16367;48.736;9.218;2024-02-26T11:20:26;3.70;;;1.60;;
29384;SDS011;16367;48.736;9.218;2024-02-26T11:22:31;4.28;;;1.50;;
29384;SDS011;16367;48.736;9.218;2024-02-26T11:24:34;3.95;;;1.65;;
29384;SDS011;16367;48.736;9.218;2024-02-26T11:26:43;5.13;;;1.27;;
29384;SDS011;16367;48.736;9.218;2024-02-26T11:28:51;4.85;;;1.50;;
29384;SDS011;16367;48.736;9.218;2024-02-26T11:30:55;3.60;;;1.40;;
29384;SDS011;16367;48.736;9.218;2024-02-26T11:33:02;3.35;;;1.17;;
29384;SDS011;16367;48.736;9.218;2024-02-26T11:35:05;3.90;;;1.23;;
29384;SDS011;16367;48.736;9.218;2024-02-26T11:37:12;3.13;;;1.00;;
29384;SDS011;16367;48.736;9.218;2024-02-26T11:39:16;4.63;;;1.50;;
29384;SDS011;16367;48.736;9.218;2024-02-26T11:41:19;3.60;;;1.13;;
29384;SDS011;16367;48.736;9.218;2024-02-26T11:43:24;3.50;;;1.20;;
29384;SDS011;16367;48.736;9.218;2024-02-26T11:45:54;3.63;;;1.10;;
29384;SDS011;16367;48.736;9.218;2024-02-26T11:48:00;3.75;;;1.13;;
29384;SDS011;16367;48.736;9.218;2024-02-26T11:52:36;4.32;;;1.25;;
29384;SDS011;16367;48.736;9.218;2024-02-26T11:54:40;3.55;;;1.35;;
29384;SDS011;16367;48.736;9.218;2024-02-26T11:56:46;3.63;;;1.00;;
29384;SDS011;16367;48.736;9.218;2024-02-26T11:58:57;4.22;;;1.20;;
29384;SDS011;16367;48.736;9.218;2024-02-26T12:03:04;3.05;;;0.93;;
29384;SDS011;16367;48.736;9.218;2024-02-26T12:05:10;3.20;;;1.30;;
29384;SDS011;16367;48.736;9.218;2024-02-26T12:07:14;2.95;;;1.02;;
29384;SDS011;16367;48.736;9.218;2024-02-26T12:09:36;5.47;;;1.05;;
29384;SDS011;16367;48.736;9.218;2024-02-26T12:11:39;4.65;;;1.30;;
29384;SDS011;16367;48.736;9.218;2024-02-26T12:13:45;3.50;;;1.20;;
29384;SDS011;16367;48.736;9.218;2024-02-26T12:15:56;4.75;;;1.40;;
29384;SDS011;16367;48.736;9.218;2024-02-26T12:18:00;4.03;;;1.42;;
29384;SDS011;16367;48.736;9.218;2024-02-26T12:20:08;3.58;;;1.00;;
29384;SDS011;16367;48.736;9.218;2024-02-26T12:22:12;4.55;;;1.33;;
29384;SDS011;16367;48.736;9.218;2024-02-26T12:24:15;3.55;;;1.10;;
29384;SDS011;16367;48.736;9.218;2024-02-26T12:26:21;5.32;;;1.42;;
29384;SDS011;16367;48.736;9.218;2024-02-26T12:28:27;3.40;;;1.00;;
29384;SDS011;16367;48.736;9.218;2024-02-26T12:30:30;4.00;;;1.30;;
29384;SDS011;16367;48.736;9.218;2024-02-26T12:32:34;3.78;;;1.20;;
29384;SDS011;16367;48.736;9.218;2024-02-26T12:34:38;2.80;;;1.00;;